createdAt,value
2022-11-19T00:01:29.671Z,1.70
2022-11-19T00:03:56.308Z,1.80
2022-11-19T00:06:25.740Z,1.80
2022-11-19T00:08:52.898Z,1.80
2022-11-19T00:11:43.234Z,1.80
2022-11-19T00:14:14.723Z,1.60
2022-11-19T00:16:41.962Z,1.70
2022-11-19T00:19:10.522Z,1.60
2022-11-19T00:21:37.157Z,1.70
2022-11-19T00:24:03.959Z,1.70
2022-11-19T00:26:30.556Z,1.60
2022-11-19T00:28:57.281Z,1.60
2022-11-19T00:31:24.116Z,1.60
2022-11-19T00:33:50.913Z,1.60
2022-11-19T00:36:17.981Z,1.60
2022-11-19T00:38:44.886Z,1.60
2022-11-19T00:41:11.853Z,1.60
2022-11-19T00:43:48.155Z,1.70
2022-11-19T00:46:19.197Z,1.60
2022-11-19T00:48:47.517Z,1.60
2022-11-19T00:51:15.233Z,1.60
2022-11-19T00:53:41.895Z,1.60
2022-11-19T00:56:11.834Z,1.50
2022-11-19T00:58:39.122Z,1.50
2022-11-19T01:01:06.761Z,1.50
2022-11-19T01:03:33.745Z,1.50
2022-11-19T01:06:01.101Z,1.50
2022-11-19T01:08:28.583Z,1.50
2022-11-19T01:10:55.497Z,1.40
2022-11-19T01:13:34.695Z,1.40
2022-11-19T01:16:06.805Z,1.40
2022-11-19T01:18:34.245Z,1.40
2022-11-19T01:21:00.894Z,1.40
2022-11-19T01:23:27.735Z,1.40
2022-11-19T01:25:54.379Z,1.40
2022-11-19T01:28:20.970Z,1.80
2022-11-19T01:30:47.624Z,1.60
2022-11-19T01:33:14.297Z,1.40
2022-11-19T01:35:40.982Z,1.30
2022-11-19T01:38:07.910Z,1.30
2022-11-19T01:40:42.716Z,1.30
2022-11-19T01:43:13.440Z,1.30
2022-11-19T01:45:44.456Z,1.30
2022-11-19T01:48:24.749Z,1.20
2022-11-19T01:50:56.143Z,1.30
2022-11-19T01:53:26.040Z,1.30
2022-11-19T01:55:53.527Z,1.30
2022-11-19T01:58:23.378Z,1.20
2022-11-19T02:00:50.071Z,1.20
2022-11-19T02:03:18.808Z,1.50
2022-11-19T02:05:47.088Z,1.10
2022-11-19T02:08:53.041Z,1.10
2022-11-19T02:11:38.181Z,1.30
2022-11-19T02:14:27.829Z,1.10
2022-11-19T02:17:34.868Z,1.00
2022-11-19T02:20:13.514Z,1.00
2022-11-19T02:23:08.536Z,1.10
2022-11-19T02:26:03.272Z,1.10
2022-11-19T02:28:46.590Z,1.20
2022-11-19T02:31:25.074Z,1.10
2022-11-19T02:34:14.240Z,1.10
2022-11-19T02:36:57.982Z,1.00
2022-11-19T02:40:01.758Z,1.10
2022-11-19T02:42:34.827Z,1.10
2022-11-19T02:45:15.650Z,1.00
2022-11-19T02:47:46.805Z,1.00
2022-11-19T02:50:18.609Z,1.00
2022-11-19T02:52:46.395Z,1.00
2022-11-19T02:55:14.828Z,1.00
2022-11-19T02:57:45.048Z,0.90
2022-11-19T03:00:31.019Z,0.80
2022-11-19T03:03:29.118Z,0.70
2022-11-19T03:06:01.394Z,0.60
2022-11-19T03:08:28.459Z,0.50
2022-11-19T03:11:00.884Z,0.60
2022-11-19T03:14:09.837Z,0.60
2022-11-19T03:16:41.390Z,0.70
2022-11-19T03:19:23.479Z,0.70
2022-11-19T03:21:58.592Z,0.80
2022-11-19T03:24:33.289Z,0.80
2022-11-19T03:27:26.598Z,0.80
2022-11-19T03:29:57.111Z,0.80
2022-11-19T03:32:34.788Z,0.80
2022-11-19T03:35:07.065Z,0.80
2022-11-19T03:37:37.785Z,0.80
2022-11-19T03:40:07.208Z,0.80
2022-11-19T03:42:34.782Z,0.80
2022-11-19T03:45:11.605Z,0.90
2022-11-19T03:47:41.449Z,0.90
2022-11-19T03:50:35.160Z,0.80
2022-11-19T03:53:04.599Z,0.80
2022-11-19T03:55:37.821Z,0.90
2022-11-19T03:58:06.460Z,0.80
2022-11-19T04:00:33.616Z,0.70
2022-11-19T04:03:00.262Z,0.50
2022-11-19T04:05:27.164Z,0.50
2022-11-19T04:07:53.788Z,0.50
2022-11-19T04:10:20.377Z,0.50
2022-11-19T04:12:47.113Z,0.50
2022-11-19T04:15:14.885Z,0.50
2022-11-19T04:17:41.728Z,0.60
2022-11-19T04:20:09.381Z,0.60
2022-11-19T04:22:36.053Z,0.60
2022-11-19T04:25:02.697Z,0.60
2022-11-19T04:27:29.273Z,0.60
2022-11-19T04:29:55.920Z,0.70
2022-11-19T04:32:22.541Z,0.70
2022-11-19T04:34:49.558Z,0.70
2022-11-19T04:37:16.136Z,0.70
2022-11-19T04:39:42.726Z,0.70
2022-11-19T04:42:09.318Z,0.70
2022-11-19T04:44:35.916Z,0.70
2022-11-19T04:47:02.786Z,0.70
2022-11-19T04:49:29.407Z,0.70
2022-11-19T04:51:56.048Z,0.80
2022-11-19T04:54:22.662Z,0.80
2022-11-19T04:56:49.275Z,0.80
2022-11-19T04:59:15.836Z,0.80
2022-11-19T05:01:42.452Z,0.70
2022-11-19T05:04:10.049Z,0.60
2022-11-19T05:06:36.677Z,0.50
2022-11-19T05:09:03.333Z,0.50
2022-11-19T05:11:29.926Z,0.50
2022-11-19T05:13:56.577Z,0.50
2022-11-19T05:16:23.222Z,0.20
2022-11-19T05:18:49.843Z,0.30
2022-11-19T05:21:16.465Z,0.40
2022-11-19T05:23:43.065Z,0.30
2022-11-19T05:26:09.716Z,0.50
2022-11-19T05:28:40.151Z,0.40
2022-11-19T05:31:08.067Z,0.50
2022-11-19T05:33:34.962Z,0.60
2022-11-19T05:36:02.345Z,0.70
2022-11-19T05:38:29.116Z,0.60
2022-11-19T05:40:55.745Z,0.60
2022-11-19T05:43:22.443Z,0.60
2022-11-19T05:45:49.067Z,0.40
2022-11-19T05:48:15.735Z,0.40
2022-11-19T05:50:42.963Z,0.30
2022-11-19T05:53:10.134Z,0.30
2022-11-19T05:55:36.759Z,0.30
2022-11-19T05:58:03.385Z,0.30
2022-11-19T06:00:30.011Z,0.40
2022-11-19T06:02:56.635Z,0.50
2022-11-19T06:05:23.246Z,0.50
2022-11-19T06:07:49.897Z,0.40
2022-11-19T06:10:16.601Z,0.50
2022-11-19T06:12:45.839Z,0.70
2022-11-19T06:15:13.623Z,0.60
2022-11-19T06:17:40.262Z,0.50
2022-11-19T06:20:10.768Z,0.50
2022-11-19T06:22:38.442Z,0.70
2022-11-19T06:25:06.324Z,0.80
2022-11-19T06:27:32.954Z,0.60
2022-11-19T06:30:00.505Z,0.70
2022-11-19T06:32:27.498Z,0.70
2022-11-19T06:34:54.139Z,0.70
2022-11-19T06:37:20.957Z,0.80
2022-11-19T06:39:47.562Z,0.90
2022-11-19T06:42:32.966Z,1.00
2022-11-19T06:44:59.648Z,1.00
2022-11-19T06:47:26.277Z,1.00
2022-11-19T06:49:52.877Z,0.80
2022-11-19T06:52:19.488Z,0.70
2022-11-19T06:54:46.057Z,0.70
2022-11-19T06:57:12.727Z,0.70
2022-11-19T06:59:39.331Z,0.00
2022-11-19T07:02:07.239Z,0.80
2022-11-19T07:04:34.031Z,0.80
2022-11-19T07:07:00.652Z,0.80
2022-11-19T07:09:27.248Z,0.70
2022-11-19T07:11:53.871Z,0.80
2022-11-19T07:14:20.476Z,0.70
2022-11-19T07:16:47.052Z,0.70
2022-11-19T07:19:13.661Z,0.80
2022-11-19T07:21:40.287Z,0.90
2022-11-19T07:24:08.703Z,1.00
2022-11-19T07:26:36.464Z,1.00
2022-11-19T07:29:05.368Z,1.10
2022-11-19T07:31:33.160Z,1.10
2022-11-19T07:33:59.778Z,0.90
2022-11-19T07:36:26.391Z,1.00
2022-11-19T07:38:53.066Z,1.20
2022-11-19T07:41:38.554Z,1.20
2022-11-19T07:44:05.501Z,1.40
2022-11-19T07:46:32.258Z,1.40
2022-11-19T07:48:59.046Z,1.40
2022-11-19T07:51:26.207Z,1.40
2022-11-19T07:53:53.255Z,1.50
2022-11-19T07:56:20.283Z,1.50
2022-11-19T07:58:47.286Z,1.50
2022-11-19T08:01:18.366Z,1.50
2022-11-19T08:03:54.866Z,1.40
2022-11-19T08:06:26.303Z,1.50
2022-11-19T08:08:55.404Z,1.70
2022-11-19T08:11:22.403Z,1.70
2022-11-19T08:13:49.021Z,1.80
2022-11-19T08:16:36.775Z,1.80
2022-11-19T08:19:07.135Z,2.00
2022-11-19T08:21:34.469Z,2.20
2022-11-19T08:24:01.177Z,2.20
2022-11-19T08:26:27.816Z,2.30
2022-11-19T08:28:54.467Z,2.20
2022-11-19T08:31:21.109Z,2.30
2022-11-19T08:33:47.737Z,2.40
2022-11-19T08:36:14.336Z,2.40
2022-11-19T08:38:40.992Z,2.40
2022-11-19T08:41:26.926Z,2.40
2022-11-19T08:43:53.559Z,2.40
2022-11-19T08:46:20.395Z,2.30
2022-11-19T08:48:47.029Z,2.30
2022-11-19T08:51:14.919Z,2.20
2022-11-19T08:53:41.781Z,2.20
2022-11-19T08:56:08.587Z,2.30
2022-11-19T08:58:36.034Z,2.40
2022-11-19T09:01:13.783Z,2.40
2022-11-19T09:03:40.942Z,2.30
2022-11-19T09:06:08.079Z,2.30
2022-11-19T09:08:35.334Z,2.30
2022-11-19T09:11:14.000Z,3.10
2022-11-19T09:13:40.976Z,3.90
2022-11-19T09:16:08.750Z,4.20
2022-11-19T09:18:39.008Z,4.20
2022-11-19T09:21:07.116Z,4.10
2022-11-19T09:23:33.818Z,3.90
2022-11-19T09:26:04.579Z,3.60
2022-11-19T09:28:31.668Z,3.20
2022-11-19T09:31:20.107Z,3.00
2022-11-19T09:33:49.240Z,2.90
2022-11-19T09:36:16.208Z,2.80
2022-11-19T09:38:42.845Z,2.70
2022-11-19T09:41:36.912Z,2.70
2022-11-19T09:44:14.372Z,2.50
2022-11-19T09:46:50.896Z,2.60
2022-11-19T09:49:25.079Z,2.60
2022-11-19T09:51:57.859Z,2.70
2022-11-19T09:54:24.831Z,2.80
2022-11-19T09:56:58.077Z,2.80
2022-11-19T09:59:41.159Z,2.90
2022-11-19T10:02:19.694Z,2.90
2022-11-19T10:04:47.909Z,2.90
2022-11-19T10:07:39.622Z,3.00
2022-11-19T10:10:42.958Z,3.10
2022-11-19T10:13:39.497Z,3.20
2022-11-19T10:16:22.561Z,3.30
2022-11-19T10:19:11.277Z,3.40
2022-11-19T10:21:48.540Z,3.50
2022-11-19T10:24:22.454Z,3.70
2022-11-19T10:27:02.001Z,4.50
2022-11-19T10:29:37.089Z,4.60
2022-11-19T10:32:23.528Z,4.30
2022-11-19T10:34:57.738Z,4.10
2022-11-19T10:37:30.462Z,4.00
2022-11-19T10:40:17.899Z,4.10
2022-11-19T10:43:00.973Z,3.90
2022-11-19T10:45:30.000Z,4.00
2022-11-19T10:48:12.414Z,4.00
2022-11-19T10:50:39.805Z,4.10
2022-11-19T10:53:30.084Z,4.10
2022-11-19T10:56:04.762Z,4.00
2022-11-19T10:58:44.631Z,4.20
2022-11-19T11:01:35.018Z,4.10
2022-11-19T11:04:07.883Z,4.00
2022-11-19T11:06:57.530Z,4.00
2022-11-19T11:09:32.924Z,4.00
2022-11-19T11:13:01.861Z,4.00
2022-11-19T11:15:28.930Z,4.10
2022-11-19T11:18:04.782Z,4.10
2022-11-19T11:20:31.824Z,4.20
2022-11-19T11:23:15.256Z,4.20
2022-11-19T11:25:52.472Z,4.30
2022-11-19T11:28:21.686Z,4.40
2022-11-19T11:30:57.532Z,4.60
2022-11-19T11:33:33.760Z,4.60
2022-11-19T11:36:18.788Z,4.80
2022-11-19T11:38:47.807Z,5.10
2022-11-19T11:44:22.233Z,5.10
2022-11-19T11:46:52.932Z,5.00
2022-11-19T11:49:30.639Z,5.00
2022-11-19T11:52:09.490Z,5.10
2022-11-19T11:54:38.223Z,5.10
2022-11-19T11:57:20.459Z,5.30
2022-11-19T11:59:47.117Z,5.30
2022-11-19T12:02:21.980Z,5.50
2022-11-19T12:04:52.187Z,5.60
2022-11-19T12:07:58.160Z,5.40
2022-11-19T12:10:54.777Z,5.40
2022-11-19T12:14:10.791Z,5.50
2022-11-19T12:16:55.933Z,5.50
2022-11-19T12:19:54.885Z,5.60
2022-11-19T12:22:45.022Z,5.40
2022-11-19T12:25:30.707Z,5.40
2022-11-19T12:28:25.048Z,5.40
2022-11-19T12:31:13.209Z,5.50
2022-11-19T12:34:24.727Z,5.50
2022-11-19T12:37:15.338Z,5.50
2022-11-19T12:40:00.763Z,5.40
2022-11-19T12:42:57.545Z,5.50
2022-11-19T12:45:43.876Z,5.70
2022-11-19T12:48:55.161Z,5.80
2022-11-19T12:51:33.074Z,5.90
2022-11-19T12:54:33.466Z,5.80
2022-11-19T12:57:40.553Z,6.30
2022-11-19T13:00:19.897Z,5.70
2022-11-19T13:03:15.122Z,5.70
2022-11-19T13:06:18.133Z,5.70
2022-11-19T13:08:55.030Z,5.80
2022-11-19T13:11:24.232Z,5.80
2022-11-19T13:13:58.483Z,5.90
2022-11-19T13:16:27.016Z,5.90
2022-11-19T13:19:07.518Z,5.90
2022-11-19T13:21:58.600Z,5.80
2022-11-19T13:24:28.821Z,5.80
2022-11-19T13:26:59.657Z,5.80
2022-11-19T13:29:46.409Z,5.90
2022-11-19T13:32:38.442Z,5.80
2022-11-19T13:35:26.578Z,6.00
2022-11-19T13:38:11.281Z,6.10
2022-11-19T13:40:52.944Z,6.00
2022-11-19T13:43:40.324Z,5.90
2022-11-19T13:46:21.767Z,5.90
2022-11-19T13:49:21.213Z,5.80
2022-11-19T13:51:53.010Z,5.60
2022-11-19T13:54:24.918Z,5.50
2022-11-19T13:56:55.359Z,5.50
2022-11-19T13:59:49.016Z,5.50
2022-11-19T14:02:55.429Z,5.40
2022-11-19T14:05:41.044Z,5.30
2022-11-19T14:08:20.312Z,5.40
2022-11-19T14:11:05.141Z,5.40
2022-11-19T14:13:45.759Z,5.50
2022-11-19T14:16:49.251Z,5.60
2022-11-19T14:19:37.175Z,5.60
2022-11-19T14:22:50.486Z,5.60
2022-11-19T14:26:02.159Z,5.60
2022-11-19T14:28:42.270Z,5.40
2022-11-19T14:31:09.817Z,5.40
2022-11-19T14:33:48.413Z,5.50
2022-11-19T14:36:41.507Z,5.50
2022-11-19T14:39:23.525Z,5.50
2022-11-19T14:42:17.665Z,5.40
2022-11-19T14:44:45.453Z,5.40
2022-11-19T14:47:27.471Z,5.30
2022-11-19T14:49:57.589Z,5.20
2022-11-19T14:52:31.949Z,5.20
2022-11-19T14:55:19.280Z,5.20
2022-11-19T14:57:55.500Z,5.20
2022-11-19T15:00:35.959Z,5.20
2022-11-19T15:03:05.918Z,5.20
2022-11-19T15:05:35.872Z,5.20
2022-11-19T15:08:17.838Z,5.20
2022-11-19T15:11:02.864Z,5.10
2022-11-19T15:13:37.356Z,5.20
2022-11-19T15:16:09.668Z,5.30
2022-11-19T15:18:45.205Z,5.20
2022-11-19T15:21:34.254Z,5.30
2022-11-19T15:24:20.548Z,5.30
2022-11-19T15:27:10.211Z,5.20
2022-11-19T15:30:05.285Z,5.10
2022-11-19T15:32:57.967Z,5.00
2022-11-19T15:35:54.268Z,4.90
2022-11-19T15:38:23.993Z,4.80
2022-11-19T15:40:54.871Z,4.80
2022-11-19T15:43:33.418Z,4.90
2022-11-19T15:46:12.777Z,4.70
2022-11-19T15:49:10.184Z,4.70
2022-11-19T15:51:51.512Z,4.80
2022-11-19T15:54:18.154Z,4.80
2022-11-19T15:56:50.066Z,4.80
2022-11-19T15:59:19.926Z,4.80
2022-11-19T16:01:59.424Z,4.90
2022-11-19T16:04:35.339Z,4.80
2022-11-19T16:07:04.353Z,4.80
2022-11-19T16:09:31.209Z,4.70
2022-11-19T16:12:16.758Z,4.70
2022-11-19T16:15:08.335Z,4.60
2022-11-19T16:17:44.194Z,4.50
2022-11-19T16:20:11.173Z,4.60
2022-11-19T16:22:47.916Z,4.70
2022-11-19T16:25:23.460Z,4.70
2022-11-19T16:27:50.090Z,4.70
2022-11-19T16:30:22.013Z,4.80
2022-11-19T16:32:49.851Z,4.90
2022-11-19T16:35:26.352Z,4.90
2022-11-19T16:37:54.397Z,4.80
2022-11-19T16:40:22.540Z,5.10
2022-11-19T16:42:59.198Z,6.00
2022-11-19T16:45:28.058Z,6.30
2022-11-19T16:48:04.058Z,5.80
2022-11-19T16:50:35.823Z,5.30
2022-11-19T16:53:05.456Z,5.20
2022-11-19T16:55:33.965Z,5.00
2022-11-19T16:58:19.104Z,4.90
2022-11-19T17:00:49.618Z,4.80
2022-11-19T17:03:29.163Z,4.60
2022-11-19T17:05:58.052Z,4.60
2022-11-19T17:08:31.729Z,4.60
2022-11-19T17:11:39.058Z,4.50
2022-11-19T17:14:42.829Z,4.50
2022-11-19T17:17:29.301Z,4.50
2022-11-19T17:19:58.748Z,4.50
2022-11-19T17:22:35.558Z,4.50
2022-11-19T17:25:04.052Z,4.50
2022-11-19T17:27:36.649Z,4.30
2022-11-19T17:30:19.799Z,4.30
2022-11-19T17:32:49.172Z,4.30
2022-11-19T17:35:38.880Z,4.30
2022-11-19T17:38:11.780Z,4.40
2022-11-19T17:40:59.095Z,4.50
2022-11-19T17:43:56.221Z,4.60
2022-11-19T17:46:25.074Z,4.60
2022-11-19T17:48:52.796Z,4.60
2022-11-19T17:51:22.170Z,4.50
2022-11-19T17:53:51.132Z,4.60
2022-11-19T17:56:26.693Z,4.60
2022-11-19T17:58:53.390Z,4.60
2022-11-19T18:01:20.290Z,4.60
2022-11-19T18:03:47.351Z,4.60
2022-11-19T18:06:16.035Z,4.70
2022-11-19T18:08:43.456Z,4.60
2022-11-19T18:11:16.389Z,4.60
2022-11-19T18:13:44.036Z,4.60
2022-11-19T18:16:16.366Z,4.60
2022-11-19T18:18:43.192Z,4.60
2022-11-19T18:21:12.280Z,4.60
2022-11-19T18:23:40.850Z,4.60
2022-11-19T18:26:11.935Z,4.50
2022-11-19T18:28:39.072Z,4.60
2022-11-19T18:31:07.180Z,4.60
2022-11-19T18:33:35.656Z,4.70
2022-11-19T18:36:02.327Z,4.70
2022-11-19T18:38:28.926Z,4.70
2022-11-19T18:40:55.515Z,4.70
2022-11-19T18:43:40.872Z,4.70
2022-11-19T18:46:07.468Z,4.70
2022-11-19T18:48:34.103Z,4.60
2022-11-19T18:51:00.696Z,4.50
2022-11-19T18:53:27.305Z,4.50
2022-11-19T18:55:54.504Z,4.40
2022-11-19T18:58:21.184Z,4.40
2022-11-19T19:00:47.813Z,5.00
2022-11-19T19:03:15.372Z,5.80
2022-11-19T19:05:42.441Z,6.20
2022-11-19T19:08:09.065Z,6.70
2022-11-19T19:10:36.262Z,6.10
2022-11-19T19:13:02.877Z,5.50
2022-11-19T19:15:29.511Z,5.10
2022-11-19T19:17:56.410Z,4.90
2022-11-19T19:20:22.997Z,4.70
2022-11-19T19:22:49.573Z,4.60
2022-11-19T19:25:16.260Z,4.40
2022-11-19T19:27:42.879Z,4.20
2022-11-19T19:30:10.289Z,4.10
2022-11-19T19:32:36.975Z,4.10
2022-11-19T19:35:03.849Z,4.00
2022-11-19T19:37:30.444Z,4.00
2022-11-19T19:39:57.174Z,4.00
2022-11-19T19:42:23.903Z,4.00
2022-11-19T19:44:50.532Z,4.00
2022-11-19T19:47:17.149Z,3.90
2022-11-19T19:49:43.861Z,4.00
2022-11-19T19:52:10.527Z,3.70
2022-11-19T19:54:37.403Z,4.00
2022-11-19T19:57:04.035Z,3.90
2022-11-19T19:59:30.748Z,3.90
2022-11-19T20:01:57.396Z,3.90
2022-11-19T20:04:24.082Z,3.90
2022-11-19T20:06:52.525Z,3.90
2022-11-19T20:09:19.146Z,3.90
2022-11-19T20:11:45.757Z,3.90
2022-11-19T20:14:12.391Z,3.90
2022-11-19T20:16:40.667Z,3.90
2022-11-19T20:19:09.198Z,3.90
2022-11-19T20:21:36.468Z,3.80
2022-11-19T20:24:08.673Z,3.80
2022-11-19T20:26:38.350Z,3.80
2022-11-19T20:29:06.441Z,3.80
2022-11-19T20:31:34.581Z,3.80
2022-11-19T20:34:04.345Z,3.80
2022-11-19T20:36:33.309Z,3.80
2022-11-19T20:39:00.004Z,3.70
2022-11-19T20:41:46.165Z,3.70
2022-11-19T20:44:20.961Z,3.60
2022-11-19T20:46:58.982Z,3.60
2022-11-19T20:49:27.760Z,3.60
2022-11-19T20:51:55.584Z,3.60
2022-11-19T20:54:22.983Z,3.60
2022-11-19T20:56:50.987Z,3.70
2022-11-19T20:59:17.924Z,3.80
2022-11-19T21:01:47.290Z,3.90
2022-11-19T21:04:13.958Z,3.90
2022-11-19T21:06:40.607Z,3.80
2022-11-19T21:09:07.679Z,3.80
2022-11-19T21:11:34.629Z,3.80
2022-11-19T21:14:01.824Z,3.80
2022-11-19T21:16:32.767Z,3.80
2022-11-19T21:18:59.663Z,3.90
2022-11-19T21:21:26.972Z,3.90
2022-11-19T21:23:54.091Z,3.80
2022-11-19T21:26:26.435Z,3.70
2022-11-19T21:28:55.161Z,3.70
2022-11-19T21:31:43.913Z,3.70
2022-11-19T21:34:12.922Z,3.80
2022-11-19T21:36:40.856Z,3.80
2022-11-19T21:39:08.264Z,3.90
2022-11-19T21:41:35.190Z,3.90
2022-11-19T21:44:03.385Z,3.90
2022-11-19T21:46:30.017Z,3.90
2022-11-19T21:48:56.840Z,3.80
2022-11-19T21:51:25.213Z,3.90
2022-11-19T21:53:55.721Z,3.90
2022-11-19T21:56:22.940Z,3.90
2022-11-19T21:58:49.541Z,3.90
2022-11-19T22:01:16.261Z,3.90
2022-11-19T22:03:42.941Z,3.80
2022-11-19T22:06:11.419Z,3.70
2022-11-19T22:08:40.664Z,3.80
2022-11-19T22:11:27.841Z,3.80
2022-11-19T22:13:55.475Z,3.80
2022-11-19T22:16:22.277Z,3.80
2022-11-19T22:18:49.060Z,3.90
2022-11-19T22:21:16.039Z,3.90
2022-11-19T22:23:43.025Z,3.90
2022-11-19T22:26:11.725Z,4.00
2022-11-19T22:28:38.623Z,3.90
2022-11-19T22:31:05.718Z,3.90
2022-11-19T22:33:34.540Z,3.80
2022-11-19T22:36:08.038Z,3.80
2022-11-19T22:38:37.244Z,3.80
2022-11-19T22:41:06.664Z,3.70
2022-11-19T22:43:35.049Z,4.30
2022-11-19T22:46:02.194Z,3.70
2022-11-19T22:48:30.018Z,3.60
2022-11-19T22:50:56.992Z,3.60
2022-11-19T22:53:24.258Z,3.60
2022-11-19T22:55:51.529Z,3.50
2022-11-19T22:58:18.120Z,3.60
2022-11-19T23:00:47.328Z,3.50
2022-11-19T23:03:15.196Z,3.50
2022-11-19T23:05:46.593Z,3.50
2022-11-19T23:08:13.197Z,3.50
2022-11-19T23:10:39.791Z,3.50
2022-11-19T23:13:24.837Z,3.50
2022-11-19T23:16:05.818Z,3.60
2022-11-19T23:18:36.081Z,3.60
2022-11-19T23:21:06.093Z,3.50
2022-11-19T23:23:32.963Z,3.60
2022-11-19T23:26:01.473Z,3.60
2022-11-19T23:28:30.597Z,3.60
2022-11-19T23:30:57.226Z,3.60
2022-11-19T23:33:23.961Z,3.80
2022-11-19T23:35:50.630Z,3.60
2022-11-19T23:38:17.353Z,3.60
2022-11-19T23:40:43.961Z,3.60
2022-11-19T23:43:10.570Z,3.70
2022-11-19T23:45:37.183Z,3.60
2022-11-19T23:48:04.403Z,3.60
2022-11-19T23:50:31.396Z,3.60
2022-11-19T23:52:57.975Z,3.60
2022-11-19T23:55:24.548Z,3.60
2022-11-19T23:57:51.161Z,3.60
